createdAt,value
2018-05-16T00:00:15.942Z,13.96
2018-05-16T00:02:27.028Z,13.96
2018-05-16T00:04:38.106Z,13.99
2018-05-16T00:06:49.210Z,14.03
2018-05-16T00:09:00.302Z,14.01
2018-05-16T00:11:11.390Z,14.01
2018-05-16T00:13:22.514Z,14.03
2018-05-16T00:15:33.647Z,14.04
2018-05-16T00:17:44.726Z,14.07
2018-05-16T00:19:55.846Z,14.10
2018-05-16T00:22:06.909Z,14.12
2018-05-16T00:24:17.975Z,14.12
2018-05-16T00:26:29.059Z,14.14
2018-05-16T00:28:40.179Z,14.17
2018-05-16T00:30:51.290Z,14.18
2018-05-16T00:33:02.414Z,14.27
2018-05-16T00:35:13.518Z,14.24
2018-05-16T00:37:24.603Z,14.21
2018-05-16T00:39:35.670Z,14.24
2018-05-16T00:41:46.799Z,14.23
2018-05-16T00:43:57.854Z,14.27
2018-05-16T00:46:08.941Z,14.30
2018-05-16T00:48:19.997Z,14.29
2018-05-16T00:50:31.081Z,14.33
2018-05-16T00:52:42.129Z,14.34
2018-05-16T00:54:53.197Z,14.31
2018-05-16T00:57:04.294Z,14.32
2018-05-16T00:59:15.355Z,14.28
2018-05-16T01:01:26.558Z,14.34
2018-05-16T01:03:37.650Z,14.36
2018-05-16T01:05:48.723Z,14.35
2018-05-16T01:07:59.832Z,14.30
2018-05-16T01:10:10.963Z,14.24
2018-05-16T01:12:22.053Z,14.17
2018-05-16T01:14:33.140Z,14.13
2018-05-16T01:16:44.195Z,14.11
2018-05-16T01:18:55.333Z,14.09
2018-05-16T01:21:06.438Z,14.13
2018-05-16T01:23:17.515Z,14.16
2018-05-16T01:25:28.588Z,14.12
2018-05-16T01:27:39.662Z,14.11
2018-05-16T01:29:50.727Z,14.10
2018-05-16T01:32:01.800Z,14.06
2018-05-16T01:34:12.998Z,14.05
2018-05-16T01:36:24.046Z,14.05
2018-05-16T01:38:35.230Z,14.03
2018-05-16T01:40:46.283Z,14.02
2018-05-16T01:42:57.347Z,14.04
2018-05-16T01:45:08.412Z,14.03
2018-05-16T01:47:19.459Z,14.00
2018-05-16T01:49:30.574Z,14.01
2018-05-16T01:51:41.639Z,14.03
2018-05-16T01:53:52.765Z,14.03
2018-05-16T01:56:03.823Z,14.00
2018-05-16T01:58:14.910Z,14.03
2018-05-16T02:00:25.987Z,14.06
2018-05-16T02:02:37.026Z,14.05
2018-05-16T02:04:48.110Z,14.04
2018-05-16T02:06:59.159Z,14.06
2018-05-16T02:09:10.455Z,14.07
2018-05-16T02:11:21.557Z,14.06
2018-05-16T02:13:32.695Z,14.09
2018-05-16T02:15:43.776Z,14.11
2018-05-16T02:17:54.847Z,14.13
2018-05-16T02:20:05.932Z,14.14
2018-05-16T02:22:17.024Z,14.16
2018-05-16T02:24:28.067Z,14.19
2018-05-16T02:26:39.172Z,14.19
2018-05-16T02:28:50.202Z,14.18
2018-05-16T02:31:01.310Z,14.18
2018-05-16T02:33:12.389Z,14.18
2018-05-16T02:35:23.446Z,14.16
2018-05-16T02:37:34.533Z,14.16
2018-05-16T02:39:45.586Z,14.12
2018-05-16T02:41:56.780Z,14.11
2018-05-16T02:44:07.877Z,14.14
2018-05-16T02:46:19.084Z,14.18
2018-05-16T02:48:30.233Z,14.21
2018-05-16T02:50:41.355Z,14.15
2018-05-16T02:52:52.442Z,14.13
2018-05-16T02:55:03.512Z,14.15
2018-05-16T02:57:14.599Z,14.12
2018-05-16T02:59:25.663Z,14.07
2018-05-16T03:01:36.786Z,14.09
2018-05-16T03:03:47.885Z,14.09
2018-05-16T03:05:58.981Z,14.08
2018-05-16T03:08:10.066Z,14.10
2018-05-16T03:10:21.186Z,14.12
2018-05-16T03:12:32.264Z,14.13
2018-05-16T03:14:43.334Z,14.09
2018-05-16T03:16:54.413Z,14.12
2018-05-16T03:19:05.625Z,14.10
2018-05-16T03:21:16.769Z,14.06
2018-05-16T03:23:27.847Z,14.07
2018-05-16T03:25:39.063Z,14.07
2018-05-16T03:27:50.110Z,14.07
2018-05-16T03:30:01.183Z,14.05
2018-05-16T03:32:12.242Z,14.02
2018-05-16T03:34:23.406Z,13.98
2018-05-16T03:36:34.482Z,13.94
2018-05-16T03:38:45.546Z,13.96
2018-05-16T03:40:56.629Z,13.93
2018-05-16T03:43:07.698Z,13.98
2018-05-16T03:45:18.784Z,13.96
2018-05-16T03:47:29.852Z,13.97
2018-05-16T03:49:40.961Z,13.96
2018-05-16T03:51:52.058Z,13.99
2018-05-16T03:54:03.168Z,13.99
2018-05-16T03:56:14.287Z,13.97
2018-05-16T03:58:37.565Z,13.94
2018-05-16T04:01:00.913Z,13.93
2018-05-16T04:03:24.047Z,13.95
2018-05-16T04:05:35.119Z,13.98
2018-05-16T04:07:46.192Z,13.98
2018-05-16T04:09:57.338Z,14.00
2018-05-16T04:12:08.431Z,14.00
2018-05-16T04:14:19.775Z,13.98
2018-05-16T04:16:30.909Z,13.98
2018-05-16T04:18:42.006Z,13.99
2018-05-16T04:20:53.149Z,13.97
2018-05-16T04:23:04.235Z,13.99
2018-05-16T04:25:15.315Z,14.05
2018-05-16T04:27:26.386Z,14.05
2018-05-16T04:29:37.483Z,14.08
2018-05-16T04:31:48.606Z,14.11
2018-05-16T04:33:59.701Z,14.13
2018-05-16T04:36:11.185Z,14.11
2018-05-16T04:38:22.324Z,14.08
2018-05-16T04:40:33.432Z,14.10
2018-05-16T04:42:44.498Z,14.16
2018-05-16T04:44:55.579Z,14.14
2018-05-16T04:47:06.659Z,14.19
2018-05-16T04:49:17.722Z,14.15
2018-05-16T04:51:28.802Z,14.16
2018-05-16T04:53:39.895Z,14.10
2018-05-16T04:55:51.059Z,14.08
2018-05-16T04:58:02.110Z,14.09
2018-05-16T05:00:13.242Z,14.06
2018-05-16T05:02:24.302Z,14.07
2018-05-16T05:04:35.430Z,14.07
2018-05-16T05:06:46.511Z,14.06
2018-05-16T05:08:57.799Z,14.01
2018-05-16T05:11:08.842Z,14.03
2018-05-16T05:13:19.940Z,14.01
2018-05-16T05:15:31.045Z,14.00
2018-05-16T05:17:42.165Z,14.02
2018-05-16T05:19:53.550Z,14.09
2018-05-16T05:22:04.629Z,14.10
2018-05-16T05:24:15.901Z,14.08
2018-05-16T05:26:26.964Z,14.16
2018-05-16T05:28:38.056Z,14.19
2018-05-16T05:30:49.135Z,14.22
2018-05-16T05:33:00.198Z,14.30
2018-05-16T05:35:11.418Z,14.31
2018-05-16T05:37:22.509Z,14.31
2018-05-16T05:39:33.654Z,14.31
2018-05-16T05:41:44.726Z,14.28
2018-05-16T05:43:55.831Z,14.26
2018-05-16T05:46:06.925Z,14.27
2018-05-16T05:48:18.045Z,14.27
2018-05-16T05:50:29.127Z,14.32
2018-05-16T05:52:40.261Z,14.33
2018-05-16T05:54:51.444Z,14.33
2018-05-16T05:57:02.562Z,14.38
2018-05-16T05:59:13.687Z,14.37
2018-05-16T06:01:24.767Z,14.36
2018-05-16T06:03:35.894Z,14.36
2018-05-16T06:05:46.952Z,14.39
2018-05-16T06:07:58.055Z,14.41
2018-05-16T06:10:09.168Z,14.41
2018-05-16T06:12:20.299Z,14.48
2018-05-16T06:14:31.467Z,14.51
2018-05-16T06:16:42.536Z,14.54
2018-05-16T06:18:53.730Z,14.58
2018-05-16T06:21:04.843Z,14.58
2018-05-16T06:23:15.910Z,14.59
2018-05-16T06:25:27.029Z,14.66
2018-05-16T06:27:38.166Z,14.71
2018-05-16T06:29:49.334Z,14.75
2018-05-16T06:32:00.423Z,14.77
2018-05-16T06:34:11.538Z,14.79
2018-05-16T06:36:22.651Z,14.86
2018-05-16T06:38:33.846Z,14.89
2018-05-16T06:40:44.922Z,14.93
2018-05-16T06:42:55.966Z,14.87
2018-05-16T06:45:07.063Z,14.90
2018-05-16T06:47:18.164Z,14.96
2018-05-16T06:49:29.206Z,15.02
2018-05-16T06:51:40.381Z,14.93
2018-05-16T06:53:51.530Z,14.93
2018-05-16T06:56:02.642Z,14.96
2018-05-16T06:58:13.662Z,14.99
2018-05-16T07:00:24.749Z,14.99
2018-05-16T07:02:35.965Z,15.02
2018-05-16T07:04:47.002Z,15.02
2018-05-16T07:06:58.222Z,14.96
2018-05-16T07:09:09.368Z,14.93
2018-05-16T07:11:20.428Z,14.89
2018-05-16T07:13:31.696Z,14.76
2018-05-16T07:15:42.767Z,14.68
2018-05-16T07:17:53.985Z,14.61
2018-05-16T07:20:05.022Z,14.56
2018-05-16T07:22:16.162Z,14.54
2018-05-16T07:24:27.234Z,14.55
2018-05-16T07:26:38.294Z,14.52
2018-05-16T07:28:49.440Z,14.46
2018-05-16T07:31:00.640Z,14.42
2018-05-16T07:33:11.814Z,14.38
2018-05-16T07:35:22.882Z,14.39
2018-05-16T07:37:34.802Z,14.38
2018-05-16T07:39:45.932Z,14.37
2018-05-16T07:41:57.076Z,14.30
2018-05-16T07:44:08.171Z,14.22
2018-05-16T07:46:19.220Z,14.20
2018-05-16T07:48:30.284Z,14.19
2018-05-16T07:50:41.385Z,14.18
2018-05-16T07:52:52.530Z,14.18
2018-05-16T07:55:03.682Z,14.13
2018-05-16T07:57:14.763Z,14.10
2018-05-16T07:59:25.970Z,14.01
2018-05-16T08:01:37.042Z,13.95
2018-05-16T08:03:48.130Z,13.88
2018-05-16T08:05:59.211Z,13.83
2018-05-16T08:08:10.296Z,13.80
2018-05-16T08:10:21.442Z,13.81
2018-05-16T08:12:32.502Z,13.83
2018-05-16T08:14:43.626Z,13.90
2018-05-16T08:16:54.823Z,13.94
2018-05-16T08:19:05.997Z,13.97
2018-05-16T08:21:17.090Z,14.04
2018-05-16T08:23:28.150Z,14.12
2018-05-16T08:25:39.231Z,14.25
2018-05-16T08:27:50.301Z,14.36
2018-05-16T08:30:01.413Z,14.44
2018-05-16T08:32:12.603Z,14.50
2018-05-16T08:34:23.691Z,14.54
2018-05-16T08:36:34.852Z,14.62
2018-05-16T08:38:46.852Z,14.66
2018-05-16T08:40:57.971Z,14.71
2018-05-16T08:43:09.163Z,14.81
2018-05-16T08:45:20.248Z,15.06
2018-05-16T08:47:31.334Z,15.45
2018-05-16T08:49:42.410Z,15.71
2018-05-16T08:51:53.537Z,15.92
2018-05-16T08:54:04.587Z,15.91
2018-05-16T08:56:15.639Z,15.84
2018-05-16T08:58:26.776Z,15.81
2018-05-16T09:00:37.910Z,15.77
2018-05-16T09:02:49.002Z,15.70
2018-05-16T09:05:00.190Z,15.71
2018-05-16T09:07:11.290Z,15.77
2018-05-16T09:09:22.375Z,15.84
2018-05-16T09:11:33.454Z,15.93
2018-05-16T09:13:44.567Z,16.01
2018-05-16T09:15:55.635Z,16.16
2018-05-16T09:18:06.990Z,16.10
2018-05-16T09:20:18.109Z,16.03
2018-05-16T09:22:29.249Z,16.05
2018-05-16T09:24:40.379Z,16.11
2018-05-16T09:26:51.464Z,16.03
2018-05-16T09:29:02.801Z,15.99
2018-05-16T09:31:14.105Z,15.99
2018-05-16T09:33:25.211Z,15.99
2018-05-16T09:35:36.327Z,16.03
2018-05-16T09:37:47.419Z,16.04
2018-05-16T09:39:58.595Z,15.96
2018-05-16T09:42:09.658Z,15.87
2018-05-16T09:44:20.845Z,15.75
2018-05-16T09:46:32.049Z,15.65
2018-05-16T09:48:43.121Z,15.53
2018-05-16T09:50:54.203Z,15.45
2018-05-16T09:53:05.281Z,15.35
2018-05-16T09:55:16.333Z,15.35
2018-05-16T09:57:27.391Z,15.36
2018-05-16T09:59:38.506Z,15.34
2018-05-16T10:01:49.599Z,15.34
2018-05-16T10:04:00.755Z,15.40
2018-05-16T10:06:11.887Z,15.47
2018-05-16T10:08:23.111Z,15.54
2018-05-16T10:10:34.169Z,15.63
2018-05-16T10:12:45.342Z,15.73
2018-05-16T10:14:56.483Z,15.81
2018-05-16T10:17:07.573Z,15.87
2018-05-16T10:19:18.665Z,15.91
2018-05-16T10:21:29.727Z,15.90
2018-05-16T10:23:40.822Z,15.92
2018-05-16T10:25:51.858Z,15.89
2018-05-16T10:28:03.000Z,15.84
2018-05-16T10:30:14.070Z,15.83
2018-05-16T10:32:25.131Z,15.89
2018-05-16T10:34:36.296Z,15.87
2018-05-16T10:36:47.294Z,15.85
2018-05-16T10:38:58.512Z,15.87
2018-05-16T10:41:10.442Z,15.82
2018-05-16T10:43:21.502Z,15.79
2018-05-16T10:45:32.738Z,15.77
2018-05-16T10:47:43.802Z,15.74
2018-05-16T10:49:54.964Z,15.64
2018-05-16T10:52:06.067Z,15.60
2018-05-16T10:54:17.207Z,15.59
2018-05-16T10:56:28.277Z,15.55
2018-05-16T10:58:39.370Z,15.61
2018-05-16T11:00:50.476Z,15.67
2018-05-16T11:03:01.534Z,15.74
2018-05-16T11:05:12.660Z,15.78
2018-05-16T11:07:23.769Z,15.83
2018-05-16T11:09:34.986Z,15.90
2018-05-16T11:11:46.079Z,15.99
2018-05-16T11:13:57.230Z,16.12
2018-05-16T11:16:08.363Z,16.27
2018-05-16T11:18:19.490Z,16.44
2018-05-16T11:20:30.599Z,16.58
2018-05-16T11:22:41.731Z,16.77
2018-05-16T11:24:52.924Z,16.91
2018-05-16T11:27:04.838Z,17.02
2018-05-16T11:29:15.922Z,17.03
2018-05-16T11:31:27.017Z,17.06
2018-05-16T11:33:38.110Z,17.08
2018-05-16T11:35:49.304Z,17.12
2018-05-16T11:38:00.375Z,17.13
2018-05-16T11:40:11.517Z,17.13
2018-05-16T11:42:22.674Z,17.04
2018-05-16T11:44:33.667Z,16.95
2018-05-16T11:46:44.759Z,16.94
2018-05-16T11:48:55.903Z,17.02
2018-05-16T11:51:07.030Z,17.10
2018-05-16T11:53:18.140Z,17.26
2018-05-16T11:55:29.303Z,17.48
2018-05-16T11:57:40.371Z,17.60
2018-05-16T11:59:51.503Z,17.54
2018-05-16T12:02:02.568Z,17.48
2018-05-16T12:04:13.702Z,17.36
2018-05-16T12:06:24.849Z,17.33
2018-05-16T12:08:35.929Z,17.35
2018-05-16T12:10:47.182Z,17.51
2018-05-16T12:12:59.157Z,17.70
2018-05-16T12:15:10.234Z,17.95
2018-05-16T12:17:21.334Z,18.10
2018-05-16T12:19:32.431Z,18.22
2018-05-16T12:21:43.625Z,18.23
2018-05-16T12:23:54.768Z,18.27
2018-05-16T12:26:05.863Z,18.35
2018-05-16T12:28:16.930Z,18.35
2018-05-16T12:30:28.690Z,18.43
2018-05-16T12:32:39.794Z,18.65
2018-05-16T12:34:50.900Z,18.75
2018-05-16T12:37:01.997Z,18.83
2018-05-16T12:39:13.141Z,18.82
2018-05-16T12:41:24.227Z,18.74
2018-05-16T12:43:35.332Z,18.74
2018-05-16T12:45:46.421Z,18.83
2018-05-16T12:47:57.612Z,18.91
2018-05-16T12:50:08.726Z,18.88
2018-05-16T12:52:19.851Z,18.75
2018-05-16T12:54:30.940Z,18.65
2018-05-16T12:56:42.020Z,18.57
2018-05-16T12:58:53.193Z,18.58
2018-05-16T13:01:04.226Z,18.52
2018-05-16T13:03:15.412Z,18.48
2018-05-16T13:05:26.482Z,18.56
2018-05-16T13:07:39.058Z,18.70
2018-05-16T13:09:50.152Z,18.85
2018-05-16T13:12:01.212Z,18.95
2018-05-16T13:14:12.325Z,19.02
2018-05-16T13:16:23.464Z,19.01
2018-05-16T13:18:34.527Z,18.90
2018-05-16T13:20:45.649Z,18.85
2018-05-16T13:22:56.753Z,18.65
2018-05-16T13:25:07.871Z,18.51
2018-05-16T13:27:18.969Z,18.40
2018-05-16T13:29:30.047Z,18.30
2018-05-16T13:31:41.135Z,18.24
2018-05-16T13:33:52.214Z,18.18
2018-05-16T13:36:03.405Z,18.12
2018-05-16T13:38:14.470Z,18.11
2018-05-16T13:40:25.594Z,18.09
2018-05-16T13:42:36.634Z,18.09
2018-05-16T13:44:47.747Z,18.12
2018-05-16T13:46:58.827Z,18.21
2018-05-16T13:49:09.917Z,18.30
2018-05-16T13:51:21.032Z,18.32
2018-05-16T13:53:32.238Z,18.36
2018-05-16T13:55:43.353Z,18.32
2018-05-16T13:57:54.445Z,18.27
2018-05-16T14:00:05.723Z,18.17
2018-05-16T14:02:16.759Z,18.14
2018-05-16T14:04:27.834Z,18.03
2018-05-16T14:06:38.921Z,17.86
2018-05-16T14:08:50.019Z,17.73
2018-05-16T14:11:01.219Z,17.65
2018-05-16T14:13:12.277Z,17.60
2018-05-16T14:15:23.510Z,17.51
2018-05-16T14:17:34.540Z,17.37
2018-05-16T14:19:45.735Z,17.25
2018-05-16T14:21:56.900Z,17.16
2018-05-16T14:24:07.962Z,17.07
2018-05-16T14:26:19.081Z,16.99
2018-05-16T14:28:30.194Z,16.94
2018-05-16T14:30:41.315Z,16.85
2018-05-16T14:32:52.449Z,16.79
2018-05-16T14:35:03.600Z,16.78
2018-05-16T14:37:14.750Z,16.77
2018-05-16T14:39:25.987Z,16.76
2018-05-16T14:41:37.066Z,16.75
2018-05-16T14:43:48.184Z,16.70
2018-05-16T14:45:59.232Z,16.68
2018-05-16T14:48:10.372Z,16.56
2018-05-16T14:50:21.573Z,16.21
2018-05-16T14:52:32.693Z,15.95
2018-05-16T14:54:43.806Z,15.62
2018-05-16T14:56:54.877Z,15.28
2018-05-16T14:59:06.067Z,14.95
2018-05-16T15:01:17.166Z,14.71
2018-05-16T15:03:28.252Z,14.57
2018-05-16T15:05:39.379Z,14.47
2018-05-16T15:07:50.480Z,14.34
2018-05-16T15:10:01.686Z,14.40
2018-05-16T15:12:12.799Z,14.41
2018-05-16T15:14:23.983Z,14.30
2018-05-16T15:16:35.054Z,14.24
2018-05-16T15:18:46.221Z,14.22
2018-05-16T15:20:57.332Z,14.20
2018-05-16T15:23:08.444Z,14.28
2018-05-16T15:25:19.565Z,14.36
2018-05-16T15:27:30.733Z,14.34
2018-05-16T15:29:41.738Z,14.25
2018-05-16T15:31:52.853Z,14.25
2018-05-16T15:34:03.959Z,14.30
2018-05-16T15:36:15.098Z,14.27
2018-05-16T15:38:26.313Z,14.32
2018-05-16T15:40:37.428Z,14.20
2018-05-16T15:42:48.486Z,14.22
2018-05-16T15:44:59.587Z,14.34
2018-05-16T15:47:10.700Z,14.46
2018-05-16T15:49:21.783Z,14.40
2018-05-16T15:51:32.918Z,14.41
2018-05-16T15:53:44.006Z,14.48
2018-05-16T15:55:55.106Z,14.56
2018-05-16T15:58:06.242Z,14.63
2018-05-16T16:00:17.306Z,14.67
2018-05-16T16:02:28.414Z,14.75
2018-05-16T16:04:39.577Z,14.79
2018-05-16T16:06:50.692Z,14.84
2018-05-16T16:09:01.952Z,14.91
2018-05-16T16:11:13.160Z,14.96
2018-05-16T16:13:24.311Z,15.03
2018-05-16T16:15:35.409Z,15.12
2018-05-16T16:17:46.653Z,15.20
2018-05-16T16:19:57.779Z,15.27
2018-05-16T16:22:08.898Z,15.33
2018-05-16T16:24:20.011Z,15.42
2018-05-16T16:26:31.129Z,15.49
2018-05-16T16:28:42.281Z,15.54
2018-05-16T16:30:53.352Z,15.60
2018-05-16T16:33:04.528Z,15.66
2018-05-16T16:35:15.618Z,15.70
2018-05-16T16:37:26.698Z,15.71
2018-05-16T16:39:37.840Z,15.74
2018-05-16T16:41:48.952Z,15.70
2018-05-16T16:44:00.014Z,15.71
2018-05-16T16:46:11.155Z,15.74
2018-05-16T16:48:22.273Z,15.78
2018-05-16T16:50:33.330Z,15.77
2018-05-16T16:52:44.412Z,15.76
2018-05-16T16:54:55.528Z,15.76
2018-05-16T16:57:13.698Z,15.76
2018-05-16T16:59:24.813Z,15.69
2018-05-16T17:01:36.015Z,15.63
2018-05-16T17:03:47.101Z,15.56
2018-05-16T17:05:58.255Z,15.59
2018-05-16T17:08:09.418Z,15.51
2018-05-16T17:10:20.579Z,15.50
2018-05-16T17:12:31.710Z,15.47
2018-05-16T17:14:42.798Z,15.46
2018-05-16T17:16:53.928Z,15.40
2018-05-16T17:19:04.997Z,15.31
2018-05-16T17:21:16.111Z,15.29
2018-05-16T17:23:27.172Z,15.31
2018-05-16T17:25:38.341Z,15.28
2018-05-16T17:27:49.455Z,15.24
2018-05-16T17:30:00.650Z,15.19
2018-05-16T17:32:11.740Z,15.16
2018-05-16T17:34:22.834Z,15.18
2018-05-16T17:36:33.911Z,15.19
2018-05-16T17:38:45.026Z,15.19
2018-05-16T17:40:56.138Z,15.11
2018-05-16T17:43:07.276Z,15.05
2018-05-16T17:45:18.429Z,15.06
2018-05-16T17:47:29.524Z,15.09
2018-05-16T17:49:40.743Z,15.11
2018-05-16T17:51:51.823Z,15.12
2018-05-16T17:54:02.949Z,15.11
2018-05-16T17:56:14.066Z,15.04
2018-05-16T17:58:25.171Z,14.98
2018-05-16T18:00:36.384Z,14.92
2018-05-16T18:02:47.418Z,14.94
2018-05-16T18:04:58.607Z,14.93
2018-05-16T18:07:09.703Z,14.90
2018-05-16T18:09:20.960Z,14.85
2018-05-16T18:11:32.038Z,14.82
2018-05-16T18:14:03.972Z,14.80
2018-05-16T18:16:27.255Z,14.80
2018-05-16T18:18:38.283Z,14.78
2018-05-16T18:20:49.442Z,14.76
2018-05-16T18:23:00.514Z,14.76
2018-05-16T18:25:11.630Z,14.70
2018-05-16T18:27:22.937Z,14.70
2018-05-16T18:29:34.080Z,14.71
2018-05-16T18:31:45.432Z,14.69
2018-05-16T18:33:56.541Z,14.69
2018-05-16T18:36:07.716Z,14.67
2018-05-16T18:38:18.784Z,14.68
2018-05-16T18:40:29.878Z,14.65
2018-05-16T18:42:41.167Z,14.62
2018-05-16T18:44:52.119Z,14.64
2018-05-16T18:47:03.210Z,14.64
2018-05-16T18:49:14.352Z,14.60
2018-05-16T18:51:25.494Z,14.60
2018-05-16T18:53:36.639Z,14.61
2018-05-16T18:55:47.783Z,14.57
2018-05-16T18:57:58.931Z,14.54
2018-05-16T19:00:09.999Z,14.50
2018-05-16T19:02:21.121Z,14.45
2018-05-16T19:04:32.324Z,14.38
2018-05-16T19:06:43.484Z,14.32
2018-05-16T19:08:54.642Z,14.23
2018-05-16T19:11:05.747Z,14.20
2018-05-16T19:13:16.974Z,14.18
2018-05-16T19:15:28.100Z,14.16
2018-05-16T19:17:39.309Z,14.06
2018-05-16T19:19:50.421Z,14.03
2018-05-16T19:22:01.509Z,14.00
2018-05-16T19:24:12.639Z,13.94
2018-05-16T19:26:23.738Z,13.91
2018-05-16T19:28:34.820Z,13.91
2018-05-16T19:30:45.866Z,13.92
2018-05-16T19:32:57.051Z,13.92
2018-05-16T19:35:08.156Z,13.92
2018-05-16T19:37:19.426Z,13.92
2018-05-16T19:39:30.743Z,13.93
2018-05-16T19:41:41.813Z,13.92
2018-05-16T19:43:53.115Z,13.89
2018-05-16T19:46:04.327Z,13.89
2018-05-16T19:48:15.312Z,13.87
2018-05-16T19:50:26.448Z,13.87
2018-05-16T19:52:37.518Z,13.85
2018-05-16T19:54:48.614Z,13.76
2018-05-16T19:56:59.731Z,13.69
2018-05-16T19:59:10.847Z,13.66
2018-05-16T20:01:21.911Z,13.64
2018-05-16T20:03:33.146Z,13.62
2018-05-16T20:05:44.182Z,13.57
2018-05-16T20:07:55.286Z,13.55
2018-05-16T20:10:06.443Z,13.48
2018-05-16T20:12:17.502Z,13.43
2018-05-16T20:14:28.674Z,13.43
2018-05-16T20:16:39.788Z,13.37
2018-05-16T20:18:50.966Z,13.30
2018-05-16T20:21:02.082Z,13.22
2018-05-16T20:23:13.159Z,13.16
2018-05-16T20:25:24.265Z,13.13
2018-05-16T20:27:35.321Z,13.10
2018-05-16T20:29:46.406Z,13.09
2018-05-16T20:31:57.487Z,13.11
2018-05-16T20:34:08.549Z,13.12
2018-05-16T20:36:19.831Z,13.14
2018-05-16T20:38:30.887Z,13.15
2018-05-16T20:40:42.016Z,13.16
2018-05-16T20:42:53.141Z,13.18
2018-05-16T20:45:04.255Z,13.22
2018-05-16T20:47:15.391Z,13.23
2018-05-16T20:49:26.468Z,13.28
2018-05-16T20:51:37.575Z,13.29
2018-05-16T20:53:48.652Z,13.31
2018-05-16T20:55:59.852Z,13.29
2018-05-16T20:58:11.050Z,13.29
2018-05-16T21:00:22.172Z,13.29
2018-05-16T21:02:33.234Z,13.27
2018-05-16T21:04:44.288Z,13.25
2018-05-16T21:06:55.367Z,13.23
2018-05-16T21:09:06.466Z,13.18
2018-05-16T21:11:17.759Z,13.11
2018-05-16T21:13:28.965Z,13.12
2018-05-16T21:15:40.045Z,13.04
2018-05-16T21:17:51.171Z,13.01
2018-05-16T21:20:02.238Z,13.03
2018-05-16T21:22:13.497Z,13.05
2018-05-16T21:24:24.554Z,13.05
2018-05-16T21:26:35.618Z,13.04
2018-05-16T21:28:46.768Z,13.04
2018-05-16T21:30:57.831Z,13.05
2018-05-16T21:33:08.922Z,13.06
2018-05-16T21:35:20.065Z,13.05
2018-05-16T21:37:31.385Z,13.07
2018-05-16T21:39:42.426Z,13.09
2018-05-16T21:41:53.619Z,13.06
2018-05-16T21:44:04.706Z,13.03
2018-05-16T21:46:15.772Z,13.01
2018-05-16T21:48:26.868Z,13.07
2018-05-16T21:50:37.934Z,13.11
2018-05-16T21:52:49.057Z,13.13
2018-05-16T21:55:00.268Z,13.15
2018-05-16T21:57:11.330Z,13.19
2018-05-16T21:59:22.433Z,13.22
2018-05-16T22:01:33.519Z,13.24
2018-05-16T22:03:44.603Z,13.26
2018-05-16T22:05:55.706Z,13.30
2018-05-16T22:08:06.783Z,13.32
2018-05-16T22:10:18.003Z,13.34
2018-05-16T22:12:29.101Z,13.35
2018-05-16T22:14:40.209Z,13.36
2018-05-16T22:16:51.263Z,13.36
2018-05-16T22:19:02.339Z,13.37
2018-05-16T22:21:13.418Z,13.37
2018-05-16T22:23:24.477Z,13.39
2018-05-16T22:25:35.563Z,13.41
2018-05-16T22:27:46.658Z,13.43
2018-05-16T22:29:57.936Z,13.42
2018-05-16T22:32:15.119Z,13.43
2018-05-16T22:34:32.266Z,13.46
2018-05-16T22:36:49.621Z,13.42
2018-05-16T22:39:06.692Z,13.37
2018-05-16T22:41:23.815Z,13.36
2018-05-16T22:43:34.956Z,13.35
2018-05-16T22:45:50.833Z,13.35
2018-05-16T22:48:01.982Z,13.33
2018-05-16T22:50:13.032Z,13.30
2018-05-16T22:52:24.098Z,13.30
2018-05-16T22:54:35.232Z,13.34
2018-05-16T22:56:46.318Z,13.36
2018-05-16T22:58:57.422Z,13.34
2018-05-16T23:01:08.503Z,13.29
2018-05-16T23:03:19.662Z,13.25
2018-05-16T23:05:30.718Z,13.22
2018-05-16T23:07:41.822Z,13.19
2018-05-16T23:09:52.922Z,13.20
2018-05-16T23:12:04.010Z,13.22
2018-05-16T23:14:15.195Z,13.25
2018-05-16T23:16:26.306Z,13.29
2018-05-16T23:18:37.429Z,13.33
2018-05-16T23:20:48.532Z,13.33
2018-05-16T23:22:59.597Z,13.37
2018-05-16T23:25:10.721Z,13.39
2018-05-16T23:27:21.774Z,13.39
2018-05-16T23:29:32.814Z,13.37
2018-05-16T23:31:43.863Z,13.37
2018-05-16T23:33:54.936Z,13.34
2018-05-16T23:36:06.055Z,13.35
2018-05-16T23:38:17.085Z,13.38
2018-05-16T23:40:28.193Z,13.38
2018-05-16T23:42:39.246Z,13.33
2018-05-16T23:44:50.293Z,13.31
2018-05-16T23:47:01.428Z,13.33
2018-05-16T23:49:12.510Z,13.37
2018-05-16T23:51:23.753Z,13.40
2018-05-16T23:53:34.810Z,13.40
2018-05-16T23:55:45.849Z,13.37
2018-05-16T23:57:56.932Z,13.38
